Private Wetterstation Sandau
Wetterdaten: Samstag, 28.01.2012
Datum Zeit Temp. A. Feuchte A. Luftdruck Regen Wind Richtung Richtung Taupunkt Windchill
28.01.2012 00:02 -2,2 C 85 % 1029,9 hPa 0,0 l/m 6,5 km/h (2 Bft) O 90 -4,4 C -4,8 C
28.01.2012 00:07 -2,2 C 85 % 1029,8 hPa 0,0 l/m 3,2 km/h (1 Bft) O 90 -4,4 C -2,2 C
28.01.2012 00:12 -2,2 C 85 % 1029,8 hPa 0,0 l/m 4,3 km/h (1 Bft) O 90 -4,4 C -2,2 C
28.01.2012 00:17 -2,2 C 85 % 1030,0 hPa 0,0 l/m 3,6 km/h (1 Bft) O 90 -4,4 C -2,2 C
28.01.2012 00:22 -2,2 C 85 % 1030,0 hPa 0,0 l/m 8,3 km/h (2 Bft) O 90 -4,4 C -5,4 C
28.01.2012 00:27 -2,2 C 85 % 1030,1 hPa 0,0 l/m 3,2 km/h (1 Bft) O 90 -4,4 C -2,2 C
28.01.2012 00:32 -2,2 C 85 % 1029,9 hPa 0,0 l/m 2,2 km/h (1 Bft) O 90 -4,4 C -2,2 C
28.01.2012 00:37 -2,2 C 85 % 1030,0 hPa 0,0 l/m 3,6 km/h (1 Bft) O 90 -4,4 C -2,2 C
28.01.2012 00:42 -2,2 C 85 % 1030,1 hPa 0,0 l/m 12,6 km/h (3 Bft) O 90 -4,4 C -6,6 C
28.01.2012 00:47 -2,2 C 85 % 1029,9 hPa 0,0 l/m 7,6 km/h (2 Bft) O 90 -4,4 C -5,2 C
28.01.2012 00:52 -2,2 C 85 % 1029,8 hPa 0,0 l/m 9,7 km/h (2 Bft) O 90 -4,4 C -5,9 C
28.01.2012 00:57 -2,2 C 85 % 1030,1 hPa 0,0 l/m 5,4 km/h (1 Bft) O 90 -4,4 C -4,3 C
28.01.2012 01:02 -2,2 C 85 % 1029,8 hPa 0,0 l/m 7,6 km/h (2 Bft) O 90 -4,4 C -5,2 C
28.01.2012 01:07 -2,2 C 85 % 1029,8 hPa 0,0 l/m 9,4 km/h (2 Bft) O 90 -4,4 C -5,8 C
28.01.2012 01:12 -2,2 C 85 % 1030,1 hPa 0,0 l/m 3,6 km/h (1 Bft) O 90 -4,4 C -2,2 C
28.01.2012 01:17 -2,2 C 85 % 1029,9 hPa 0,0 l/m 4,7 km/h (1 Bft) O 90 -4,4 C -3,9 C
28.01.2012 01:22 -2,2 C 85 % 1030,1 hPa 0,0 l/m 5,0 km/h (1 Bft) O 90 -4,4 C -4,1 C
28.01.2012 01:27 -2,2 C 85 % 1030,1 hPa 0,0 l/m 8,3 km/h (2 Bft) O 90 -4,4 C -5,4 C
28.01.2012 01:32 -2,2 C 85 % 1030,2 hPa 0,0 l/m 4,7 km/h (1 Bft) O 90 -4,4 C -3,9 C
28.01.2012 01:37 -2,2 C 85 % 1030,1 hPa 0,0 l/m 6,5 km/h (2 Bft) O 90 -4,4 C -4,8 C
28.01.2012 01:42 -2,2 C 85 % 1030,2 hPa 0,0 l/m 5,8 km/h (2 Bft) O 90 -4,4 C -4,5 C
28.01.2012 01:47 -2,2 C 85 % 1030,2 hPa 0,0 l/m 7,2 km/h (2 Bft) O 90 -4,4 C -5,0 C
28.01.2012 01:52 -2,2 C 85 % 1030,3 hPa 0,0 l/m 6,5 km/h (2 Bft) O 90 -4,4 C -4,8 C
28.01.2012 01:57 -2,2 C 85 % 1030,2 hPa 0,0 l/m 6,8 km/h (2 Bft) O 90 -4,4 C -4,9 C
28.01.2012 02:02 -2,2 C 85 % 1030,3 hPa 0,0 l/m 2,5 km/h (1 Bft) O 90 -4,4 C -2,2 C
28.01.2012 02:07 -2,2 C 85 % 1030,3 hPa 0,0 l/m 7,9 km/h (2 Bft) O 90 -4,4 C -5,3 C
28.01.2012 02:12 -2,2 C 85 % 1030,5 hPa 0,0 l/m 5,4 km/h (1 Bft) O 90 -4,4 C -4,3 C
28.01.2012 02:17 -2,2 C 85 % 1030,4 hPa 0,0 l/m 2,9 km/h (1 Bft) O 90 -4,4 C -2,2 C
28.01.2012 02:22 -2,2 C 85 % 1030,5 hPa 0,0 l/m 5,8 km/h (2 Bft) O 90 -4,4 C -4,5 C
28.01.2012 02:27 -2,2 C 85 % 1030,5 hPa 0,0 l/m 7,6 km/h (2 Bft) O 90 -4,4 C -5,2 C
28.01.2012 02:32 -2,2 C 85 % 1030,6 hPa 0,0 l/m 6,1 km/h (2 Bft) O 90 -4,4 C -4,6 C
28.01.2012 02:37 -2,2 C 85 % 1030,6 hPa 0,0 l/m 3,6 km/h (1 Bft) O 90 -4,4 C -2,2 C
28.01.2012 02:42 -2,2 C 85 % 1030,5 hPa 0,0 l/m 6,1 km/h (2 Bft) O 90 -4,4 C -4,6 C
28.01.2012 02:47 -2,2 C 85 % 1030,7 hPa 0,0 l/m 3,6 km/h (1 Bft) O 90 -4,4 C -2,2 C
28.01.2012 02:52 -2,2 C 85 % 1030,5 hPa 0,0 l/m 2,5 km/h (1 Bft) O 90 -4,4 C -2,2 C
28.01.2012 02:57 -2,2 C 85 % 1030,7 hPa 0,0 l/m 4,0 km/h (1 Bft) O 90 -4,4 C -2,2 C
28.01.2012 03:02 -2,2 C 85 % 1030,7 hPa 0,0 l/m 2,2 km/h (1 Bft) O 90 -4,4 C -2,2 C
28.01.2012 03:07 -2,2 C 85 % 1030,6 hPa 0,0 l/m 4,7 km/h (1 Bft) O 90 -4,4 C -3,9 C
28.01.2012 03:12 -2,2 C 85 % 1030,5 hPa 0,0 l/m 6,1 km/h (2 Bft) O 90 -4,4 C -4,6 C
28.01.2012 03:17 -2,2 C 85 % 1030,6 hPa 0,0 l/m 5,0 km/h (1 Bft) O 90 -4,4 C -4,1 C
28.01.2012 03:22 -2,2 C 85 % 1030,6 hPa 0,0 l/m 2,5 km/h (1 Bft) O 90 -4,4 C -2,2 C
28.01.2012 03:27 -2,2 C 85 % 1030,6 hPa 0,0 l/m 9,4 km/h (2 Bft) O 90 -4,4 C -5,8 C
28.01.2012 03:32 -2,4 C 84 % 1030,6 hPa 0,0 l/m 5,8 km/h (2 Bft) O 90 -4,7 C -4,7 C
28.01.2012 03:37 -2,4 C 84 % 1030,5 hPa 0,0 l/m 7,6 km/h (2 Bft) O 90 -4,7 C -5,4 C
28.01.2012 03:42 -2,4 C 84 % 1030,5 hPa 0,0 l/m 6,8 km/h (2 Bft) O 90 -4,7 C -5,1 C
28.01.2012 03:47 -2,4 C 84 % 1030,5 hPa 0,0 l/m 2,5 km/h (1 Bft) O 90 -4,7 C -2,4 C
28.01.2012 03:52 -2,5 C 84 % 1030,5 hPa 0,0 l/m 5,8 km/h (2 Bft) O 90 -4,8 C -4,8 C
28.01.2012 03:57 -2,5 C 83 % 1030,6 hPa 0,0 l/m 4,7 km/h (1 Bft) O 90 -5,0 C -4,3 C
28.01.2012 04:02 -2,6 C 83 % 1030,5 hPa 0,0 l/m 4,7 km/h (1 Bft) O 90 -5,1 C -4,4 C
28.01.2012 04:07 -2,6 C 83 % 1030,7 hPa 0,0 l/m 5,0 km/h (1 Bft) O 90 -5,1 C -4,5 C
28.01.2012 04:12 -2,7 C 83 % 1030,8 hPa 0,0 l/m 4,7 km/h (1 Bft) O 90 -5,2 C -4,5 C
28.01.2012 04:17 -2,7 C 83 % 1030,6 hPa 0,0 l/m 3,6 km/h (1 Bft) O 90 -5,2 C -2,7 C
28.01.2012 04:22 -2,8 C 83 % 1030,7 hPa 0,0 l/m 5,4 km/h (1 Bft) O 90 -5,3 C -5,0 C
28.01.2012 04:27 -2,8 C 83 % 1030,8 hPa 0,0 l/m 5,8 km/h (2 Bft) O 90 -5,3 C -5,2 C
28.01.2012 04:32 -2,8 C 83 % 1030,9 hPa 0,0 l/m 5,8 km/h (2 Bft) O 90 -5,3 C -5,2 C
28.01.2012 04:37 -2,9 C 83 % 1030,9 hPa 0,0 l/m 3,2 km/h (1 Bft) O 90 -5,4 C -2,9 C
28.01.2012 04:42 -2,9 C 82 % 1030,9 hPa 0,0 l/m 6,1 km/h (2 Bft) O 90 -5,5 C -5,4 C
28.01.2012 04:47 -3,0 C 82 % 1030,9 hPa 0,0 l/m 9,0 km/h (2 Bft) O 90 -5,6 C -6,6 C
28.01.2012 04:52 -3,1 C 82 % 1031,0 hPa 0,0 l/m 5,0 km/h (1 Bft) O 90 -5,7 C -5,1 C
28.01.2012 04:57 -3,1 C 82 % 1031,0 hPa 0,0 l/m 4,3 km/h (1 Bft) O 90 -5,7 C -3,1 C
28.01.2012 05:02 -3,1 C 82 % 1030,9 hPa 0,0 l/m 9,0 km/h (2 Bft) O 90 -5,7 C -6,7 C
28.01.2012 05:07 -3,1 C 82 % 1030,8 hPa 0,0 l/m 3,2 km/h (1 Bft) O 90 -5,7 C -3,1 C
28.01.2012 05:12 -3,1 C 82 % 1030,8 hPa 0,0 l/m 4,7 km/h (1 Bft) O 90 -5,7 C -4,9 C
28.01.2012 05:17 -3,1 C 82 % 1031,0 hPa 0,0 l/m 8,6 km/h (2 Bft) O 90 -5,7 C -6,6 C
28.01.2012 05:22 -3,1 C 82 % 1031,0 hPa 0,0 l/m 10,4 km/h (2 Bft) O 90 -5,7 C -7,1 C
28.01.2012 05:27 -3,1 C 82 % 1030,9 hPa 0,0 l/m 5,4 km/h (1 Bft) O 90 -5,7 C -5,3 C
28.01.2012 05:32 -3,1 C 82 % 1030,9 hPa 0,0 l/m 5,8 km/h (2 Bft) O 90 -5,7 C -5,5 C
28.01.2012 05:37 -3,2 C 82 % 1031,0 hPa 0,0 l/m 3,6 km/h (1 Bft) O 90 -5,8 C -3,2 C
28.01.2012 05:42 -3,2 C 82 % 1031,0 hPa 0,0 l/m 4,0 km/h (1 Bft) O 90 -5,8 C -3,2 C
28.01.2012 05:47 -3,2 C 82 % 1031,0 hPa 0,0 l/m 2,5 km/h (1 Bft) O 90 -5,8 C -3,2 C
28.01.2012 05:52 -3,2 C 82 % 1031,1 hPa 0,0 l/m 4,3 km/h (1 Bft) O 90 -5,8 C -3,2 C
28.01.2012 05:57 -3,2 C 82 % 1031,0 hPa 0,0 l/m 9,7 km/h (2 Bft) O 90 -5,8 C -7,0 C
28.01.2012 06:02 -3,2 C 82 % 1031,0 hPa 0,0 l/m 7,9 km/h (2 Bft) O 90 -5,8 C -6,5 C
28.01.2012 06:07 -3,2 C 81 % 1031,0 hPa 0,0 l/m 6,8 km/h (2 Bft) O 90 -6,0 C -6,0 C
28.01.2012 06:12 -3,2 C 82 % 1031,1 hPa 0,0 l/m 6,8 km/h (2 Bft) O 90 -5,8 C -6,0 C
28.01.2012 06:17 -3,2 C 82 % 1031,2 hPa 0,0 l/m 6,1 km/h (2 Bft) O 90 -5,8 C -5,7 C
28.01.2012 06:22 -3,2 C 82 % 1031,2 hPa 0,0 l/m 9,4 km/h (2 Bft) O 90 -5,8 C -7,0 C
28.01.2012 06:27 -3,2 C 82 % 1031,2 hPa 0,0 l/m 6,5 km/h (2 Bft) O 90 -5,8 C -5,9 C
28.01.2012 06:32 -3,2 C 81 % 1031,3 hPa 0,0 l/m 6,1 km/h (2 Bft) O 90 -6,0 C -5,7 C
28.01.2012 06:37 -3,2 C 81 % 1031,2 hPa 0,0 l/m 10,8 km/h (2 Bft) O 90 -6,0 C -7,4 C
28.01.2012 06:42 -3,2 C 81 % 1031,3 hPa 0,0 l/m 9,0 km/h (2 Bft) O 90 -6,0 C -6,8 C
28.01.2012 06:47 -3,2 C 81 % 1031,4 hPa 0,0 l/m 3,6 km/h (1 Bft) O 90 -6,0 C -3,2 C
28.01.2012 06:52 -3,2 C 82 % 1031,2 hPa 0,0 l/m 6,1 km/h (2 Bft) O 90 -5,8 C -5,7 C
28.01.2012 06:57 -3,2 C 82 % 1031,3 hPa 0,0 l/m 8,3 km/h (2 Bft) O 90 -5,8 C -6,6 C
28.01.2012 07:02 -3,2 C 82 % 1031,5 hPa 0,0 l/m 4,7 km/h (1 Bft) O 90 -5,8 C -5,1 C
28.01.2012 07:07 -3,2 C 82 % 1031,3 hPa 0,0 l/m 6,1 km/h (2 Bft) O 90 -5,8 C -5,7 C
28.01.2012 07:12 -3,2 C 81 % 1031,3 hPa 0,0 l/m 9,7 km/h (2 Bft) O 90 -6,0 C -7,0 C
28.01.2012 07:17 -3,2 C 81 % 1031,4 hPa 0,0 l/m 3,2 km/h (1 Bft) O 90 -6,0 C -3,2 C
28.01.2012 07:22 -3,2 C 81 % 1031,4 hPa 0,0 l/m 8,6 km/h (2 Bft) O 90 -6,0 C -6,7 C
28.01.2012 07:27 -3,2 C 81 % 1031,4 hPa 0,0 l/m 3,6 km/h (1 Bft) O 90 -6,0 C -3,2 C
28.01.2012 07:32 -3,2 C 81 % 1031,3 hPa 0,0 l/m 3,6 km/h (1 Bft) O 90 -6,0 C -3,2 C
28.01.2012 07:37 -3,2 C 81 % 1031,2 hPa 0,0 l/m 5,8 km/h (2 Bft) O 90 -6,0 C -5,6 C
28.01.2012 07:42 -3,2 C 81 % 1031,3 hPa 0,0 l/m 6,1 km/h (2 Bft) O 90 -6,0 C -5,7 C
28.01.2012 07:47 -3,2 C 81 % 1031,4 hPa 0,0 l/m 9,0 km/h (2 Bft) O 90 -6,0 C -6,8 C
28.01.2012 07:52 -3,2 C 81 % 1031,4 hPa 0,0 l/m 5,8 km/h (2 Bft) O 90 -6,0 C -5,6 C
28.01.2012 07:57 -3,3 C 81 % 1031,4 hPa 0,0 l/m 2,5 km/h (1 Bft) O 90 -6,1 C -3,3 C
28.01.2012 08:02 -3,4 C 81 % 1031,4 hPa 0,0 l/m 8,6 km/h (2 Bft) O 90 -6,2 C -6,9 C
28.01.2012 08:07 -3,4 C 81 % 1031,6 hPa 0,0 l/m 6,5 km/h (2 Bft) O 90 -6,2 C -6,2 C
28.01.2012 08:12 -3,4 C 81 % 1031,6 hPa 0,0 l/m 5,8 km/h (2 Bft) O 90 -6,2 C -5,8 C
28.01.2012 08:17 -3,5 C 81 % 1031,8 hPa 0,0 l/m 8,3 km/h (2 Bft) O 90 -6,3 C -7,0 C
28.01.2012 08:22 -3,5 C 81 % 1031,7 hPa 0,0 l/m 7,2 km/h (2 Bft) O 90 -6,3 C -6,6 C
28.01.2012 08:27 -3,6 C 81 % 1031,8 hPa 0,0 l/m 4,3 km/h (1 Bft) O 90 -6,4 C -3,6 C
28.01.2012 08:32 -3,6 C 81 % 1031,8 hPa 0,0 l/m 7,2 km/h (2 Bft) O 90 -6,4 C -6,7 C
28.01.2012 08:37 -3,6 C 81 % 1032,0 hPa 0,0 l/m 3,2 km/h (1 Bft) O 90 -6,4 C -3,6 C
28.01.2012 08:42 -3,6 C 81 % 1031,9 hPa 0,0 l/m 4,7 km/h (1 Bft) O 90 -6,4 C -5,5 C
28.01.2012 08:47 -3,6 C 81 % 1031,9 hPa 0,0 l/m 7,2 km/h (2 Bft) O 90 -6,4 C -6,7 C
28.01.2012 08:52 -3,6 C 81 % 1031,9 hPa 0,0 l/m 4,0 km/h (1 Bft) O 90 -6,4 C -3,6 C
28.01.2012 08:57 -3,7 C 81 % 1031,9 hPa 0,0 l/m 7,6 km/h (2 Bft) O 90 -6,5 C -6,9 C
28.01.2012 09:02 -3,7 C 81 % 1032,0 hPa 0,0 l/m 1,1 km/h (1 Bft) O 90 -6,5 C -3,7 C
28.01.2012 09:07 -3,7 C 81 % 1032,0 hPa 0,0 l/m 7,9 km/h (2 Bft) O 90 -6,5 C -7,0 C
28.01.2012 09:12 -3,7 C 81 % 1032,1 hPa 0,0 l/m 10,4 km/h (2 Bft) O 90 -6,5 C -7,9 C
28.01.2012 09:17 -3,7 C 81 % 1032,2 hPa 0,0 l/m 6,8 km/h (2 Bft) O 90 -6,5 C -6,6 C
28.01.2012 09:22 -3,7 C 81 % 1032,0 hPa 0,0 l/m 3,2 km/h (1 Bft) O 90 -6,5 C -3,7 C
28.01.2012 09:27 -3,7 C 81 % 1032,2 hPa 0,0 l/m 4,0 km/h (1 Bft) O 90 -6,5 C -3,7 C
28.01.2012 09:32 -3,7 C 81 % 1032,3 hPa 0,0 l/m 6,1 km/h (2 Bft) O 90 -6,5 C -6,3 C
28.01.2012 09:37 -3,7 C 81 % 1032,2 hPa 0,0 l/m 7,9 km/h (2 Bft) O 90 -6,5 C -7,0 C
28.01.2012 09:42 -3,6 C 81 % 1032,1 hPa 0,0 l/m 4,7 km/h (1 Bft) O 90 -6,4 C -5,5 C
28.01.2012 09:47 -3,6 C 81 % 1032,2 hPa 0,0 l/m 4,7 km/h (1 Bft) O 90 -6,4 C -5,5 C
28.01.2012 09:52 -3,6 C 81 % 1032,2 hPa 0,0 l/m 5,0 km/h (1 Bft) O 90 -6,4 C -5,7 C
28.01.2012 09:57 -3,5 C 81 % 1032,2 hPa 0,0 l/m 3,6 km/h (1 Bft) O 90 -6,3 C -3,5 C
28.01.2012 10:02 -3,5 C 80 % 1032,4 hPa 0,0 l/m 6,1 km/h (2 Bft) O 90 -6,4 C -6,1 C
28.01.2012 10:07 -3,6 C 80 % 1032,4 hPa 0,0 l/m 5,0 km/h (1 Bft) O 90 -6,5 C -5,7 C
28.01.2012 10:12 -3,6 C 80 % 1032,5 hPa 0,0 l/m 6,1 km/h (2 Bft) O 90 -6,5 C -6,2 C
28.01.2012 10:17 -3,6 C 80 % 1032,6 hPa 0,0 l/m 9,0 km/h (2 Bft) O 90 -6,5 C -7,3 C
28.01.2012 10:22 -3,6 C 80 % 1032,6 hPa 0,0 l/m 5,4 km/h (1 Bft) O 90 -6,5 C -5,9 C
28.01.2012 10:27 -3,6 C 79 % 1032,6 hPa 0,0 l/m 4,0 km/h (1 Bft) O 90 -6,7 C -3,6 C
28.01.2012 10:32 -3,7 C 79 % 1032,6 hPa 0,0 l/m 11,9 km/h (2 Bft) O 90 -6,8 C -8,3 C
28.01.2012 10:37 -3,6 C 79 % 1032,8 hPa 0,0 l/m 9,4 km/h (2 Bft) O 90 -6,7 C -7,4 C
28.01.2012 10:42 -3,7 C 79 % 1032,6 hPa 0,0 l/m 5,0 km/h (1 Bft) O 90 -6,8 C -5,8 C
28.01.2012 10:47 -3,6 C 79 % 1032,6 hPa 0,0 l/m 7,9 km/h (2 Bft) O 90 -6,7 C -6,9 C
28.01.2012 10:52 -3,6 C 79 % 1032,6 hPa 0,0 l/m 6,8 km/h (2 Bft) O 90 -6,7 C -6,5 C
28.01.2012 10:57 -3,5 C 79 % 1032,6 hPa 0,0 l/m 5,4 km/h (1 Bft) O 90 -6,6 C -5,8 C
28.01.2012 11:02 -3,5 C 79 % 1032,6 hPa 0,0 l/m 6,5 km/h (2 Bft) O 90 -6,6 C -6,3 C
28.01.2012 11:07 -3,5 C 79 % 1032,6 hPa 0,0 l/m 3,6 km/h (1 Bft) O 90 -6,6 C -3,5 C
28.01.2012 11:12 -3,5 C 79 % 1032,6 hPa 0,0 l/m 9,4 km/h (2 Bft) O 90 -6,6 C -7,3 C
28.01.2012 11:17 -3,4 C 79 % 1032,7 hPa 0,0 l/m 0,0 km/h (0 Bft) O 90 -6,5 C -3,4 C
28.01.2012 11:22 -3,4 C 79 % 1032,6 hPa 0,0 l/m 8,3 km/h (2 Bft) O 90 -6,5 C -6,8 C
28.01.2012 11:27 -3,2 C 79 % 1032,6 hPa 0,0 l/m 11,2 km/h (2 Bft) O 90 -6,3 C -7,5 C
28.01.2012 11:32 -3,2 C 78 % 1032,6 hPa 0,0 l/m 7,6 km/h (2 Bft) O 90 -6,5 C -6,4 C
28.01.2012 11:37 -3,3 C 78 % 1032,7 hPa 0,0 l/m 6,5 km/h (2 Bft) O 90 -6,6 C -6,0 C
28.01.2012 11:42 -3,2 C 78 % 1032,6 hPa 0,0 l/m 4,0 km/h (1 Bft) O 90 -6,5 C -3,2 C
28.01.2012 11:47 -3,1 C 78 % 1032,7 hPa 0,0 l/m 2,9 km/h (1 Bft) O 90 -6,4 C -3,1 C
28.01.2012 11:52 -3,1 C 78 % 1032,6 hPa 0,0 l/m 7,2 km/h (2 Bft) O 90 -6,4 C -6,1 C
28.01.2012 11:57 -3,2 C 78 % 1032,6 hPa 0,0 l/m 4,3 km/h (1 Bft) O 90 -6,5 C -3,2 C
28.01.2012 12:02 -3,2 C 78 % 1032,6 hPa 0,0 l/m 5,4 km/h (1 Bft) O 90 -6,5 C -5,4 C
28.01.2012 12:07 -3,2 C 78 % 1032,5 hPa 0,0 l/m 5,4 km/h (1 Bft) O 90 -6,5 C -5,4 C
28.01.2012 12:12 -3,1 C 78 % 1032,4 hPa 0,0 l/m 8,6 km/h (2 Bft) O 90 -6,4 C -6,6 C
28.01.2012 12:17 -3,1 C 78 % 1032,4 hPa 0,0 l/m 5,0 km/h (1 Bft) O 90 -6,4 C -5,1 C
28.01.2012 12:22 -3,1 C 78 % 1032,3 hPa 0,0 l/m 6,5 km/h (2 Bft) O 90 -6,4 C -5,8 C
28.01.2012 12:27 -3,0 C 78 % 1032,4 hPa 0,0 l/m 4,7 km/h (1 Bft) O 90 -6,3 C -4,8 C
28.01.2012 12:32 -3,0 C 78 % 1032,3 hPa 0,0 l/m 4,7 km/h (1 Bft) O 90 -6,3 C -4,8 C
28.01.2012 12:37 -3,0 C 78 % 1032,4 hPa 0,0 l/m 8,6 km/h (2 Bft) O 90 -6,3 C -6,5 C
28.01.2012 12:42 -2,9 C 78 % 1032,5 hPa 0,0 l/m 2,5 km/h (1 Bft) O 90 -6,2 C -2,9 C
28.01.2012 12:47 -2,9 C 78 % 1032,3 hPa 0,0 l/m 3,6 km/h (1 Bft) O 90 -6,2 C -2,9 C
28.01.2012 12:52 -2,9 C 77 % 1032,3 hPa 0,0 l/m 4,7 km/h (1 Bft) O 90 -6,4 C -4,7 C
28.01.2012 12:57 -2,9 C 77 % 1032,3 hPa 0,0 l/m 7,6 km/h (2 Bft) O 90 -6,4 C -6,0 C
28.01.2012 13:02 -2,9 C 77 % 1032,4 hPa 0,0 l/m 6,5 km/h (2 Bft) O 90 -6,4 C -5,6 C
28.01.2012 13:07 -2,9 C 77 % 1032,4 hPa 0,0 l/m 2,5 km/h (1 Bft) O 90 -6,4 C -2,9 C
28.01.2012 13:12 -2,9 C 77 % 1032,5 hPa 0,0 l/m 3,2 km/h (1 Bft) O 90 -6,4 C -2,9 C
28.01.2012 13:17 -2,9 C 77 % 1032,1 hPa 0,0 l/m 5,4 km/h (1 Bft) O 90 -6,4 C -5,1 C
28.01.2012 13:22 -2,9 C 77 % 1032,3 hPa 0,0 l/m 4,7 km/h (1 Bft) O 90 -6,4 C -4,7 C
28.01.2012 13:27 -2,9 C 77 % 1032,4 hPa 0,0 l/m 2,9 km/h (1 Bft) O 90 -6,4 C -2,9 C
28.01.2012 13:32 -2,8 C 77 % 1032,2 hPa 0,0 l/m 4,0 km/h (1 Bft) O 90 -6,3 C -2,8 C
28.01.2012 13:37 -2,8 C 77 % 1032,3 hPa 0,0 l/m 4,7 km/h (1 Bft) O 90 -6,3 C -4,6 C
28.01.2012 13:42 -2,7 C 77 % 1032,3 hPa 0,0 l/m 4,0 km/h (1 Bft) O 90 -6,2 C -2,7 C
28.01.2012 13:47 -2,7 C 77 % 1032,3 hPa 0,0 l/m 6,1 km/h (2 Bft) O 90 -6,2 C -5,2 C
28.01.2012 13:52 -2,7 C 77 % 1032,2 hPa 0,0 l/m 4,7 km/h (1 Bft) O 90 -6,2 C -4,5 C
28.01.2012 13:57 -2,7 C 77 % 1032,3 hPa 0,0 l/m 4,0 km/h (1 Bft) O 90 -6,2 C -2,7 C
28.01.2012 14:02 -2,7 C 77 % 1032,1 hPa 0,0 l/m 8,6 km/h (2 Bft) O 90 -6,2 C -6,1 C
28.01.2012 14:07 -2,7 C 77 % 1032,2 hPa 0,0 l/m 11,9 km/h (2 Bft) O 90 -6,2 C -7,0 C
28.01.2012 14:12 -2,7 C 77 % 1032,0 hPa 0,0 l/m 4,7 km/h (1 Bft) O 90 -6,2 C -4,5 C
28.01.2012 14:17 -2,7 C 77 % 1032,1 hPa 0,0 l/m 2,5 km/h (1 Bft) O 90 -6,2 C -2,7 C
28.01.2012 14:22 -2,7 C 77 % 1032,3 hPa 0,0 l/m 6,1 km/h (2 Bft) O 90 -6,2 C -5,2 C
28.01.2012 14:27 -2,6 C 77 % 1032,3 hPa 0,0 l/m 6,8 km/h (2 Bft) O 90 -6,1 C -5,3 C
28.01.2012 14:32 -2,7 C 77 % 1032,3 hPa 0,0 l/m 5,8 km/h (2 Bft) O 90 -6,2 C -5,0 C
28.01.2012 14:37 -2,7 C 77 % 1032,4 hPa 0,0 l/m 0,0 km/h (0 Bft) O 90 -6,2 C -2,7 C
28.01.2012 14:42 -2,7 C 77 % 1032,1 hPa 0,0 l/m 5,8 km/h (2 Bft) O 90 -6,2 C -5,0 C
28.01.2012 14:47 -2,7 C 77 % 1032,2 hPa 0,0 l/m 4,7 km/h (1 Bft) O 90 -6,2 C -4,5 C
28.01.2012 14:52 -2,7 C 77 % 1032,3 hPa 0,0 l/m 8,3 km/h (2 Bft) O 90 -6,2 C -6,0 C
28.01.2012 14:57 -2,7 C 77 % 1032,2 hPa 0,0 l/m 2,5 km/h (1 Bft) O 90 -6,2 C -2,7 C
28.01.2012 15:02 -2,8 C 77 % 1032,1 hPa 0,0 l/m 1,8 km/h (1 Bft) O 90 -6,3 C -2,8 C
28.01.2012 15:07 -2,9 C 77 % 1032,1 hPa 0,0 l/m 4,0 km/h (1 Bft) O 90 -6,4 C -2,9 C
28.01.2012 15:12 -2,8 C 78 % 1032,1 hPa 0,0 l/m 9,7 km/h (2 Bft) O 90 -6,1 C -6,6 C
28.01.2012 15:17 -2,9 C 77 % 1032,1 hPa 0,0 l/m 4,0 km/h (1 Bft) O 90 -6,4 C -2,9 C
28.01.2012 15:22 -2,9 C 77 % 1032,3 hPa 0,0 l/m 4,7 km/h (1 Bft) O 90 -6,4 C -4,7 C
28.01.2012 15:27 -2,9 C 78 % 1032,2 hPa 0,0 l/m 4,7 km/h (1 Bft) O 90 -6,2 C -4,7 C
28.01.2012 15:32 -2,9 C 77 % 1032,1 hPa 0,0 l/m 6,1 km/h (2 Bft) O 90 -6,4 C -5,4 C
28.01.2012 15:37 -2,9 C 78 % 1032,3 hPa 0,0 l/m 7,2 km/h (2 Bft) O 90 -6,2 C -5,9 C
28.01.2012 15:42 -2,9 C 78 % 1032,3 hPa 0,0 l/m 5,4 km/h (1 Bft) O 90 -6,2 C -5,1 C
28.01.2012 15:47 -2,9 C 78 % 1032,2 hPa 0,0 l/m 6,1 km/h (2 Bft) O 90 -6,2 C -5,4 C
28.01.2012 15:52 -2,9 C 78 % 1032,5 hPa 0,0 l/m 3,2 km/h (1 Bft) O 90 -6,2 C -2,9 C
28.01.2012 15:57 -2,9 C 78 % 1032,4 hPa 0,0 l/m 8,6 km/h (2 Bft) O 90 -6,2 C -6,3 C
28.01.2012 16:02 -2,9 C 78 % 1032,2 hPa 0,0 l/m 2,5 km/h (1 Bft) O 90 -6,2 C -2,9 C
28.01.2012 16:07 -2,9 C 78 % 1032,5 hPa 0,0 l/m 10,1 km/h (2 Bft) O 90 -6,2 C -6,8 C
28.01.2012 16:12 -2,9 C 78 % 1032,5 hPa 0,0 l/m 4,0 km/h (1 Bft) O 90 -6,2 C -2,9 C
28.01.2012 16:17 -2,9 C 78 % 1032,3 hPa 0,0 l/m 9,0 km/h (2 Bft) O 90 -6,2 C -6,5 C
28.01.2012 16:22 -2,9 C 78 % 1032,4 hPa 0,0 l/m 4,7 km/h (1 Bft) O 90 -6,2 C -4,7 C
28.01.2012 16:27 -2,9 C 78 % 1032,3 hPa 0,0 l/m 4,3 km/h (1 Bft) O 90 -6,2 C -2,9 C
28.01.2012 16:32 -3,0 C 78 % 1032,6 hPa 0,0 l/m 3,6 km/h (1 Bft) O 90 -6,3 C -3,0 C
28.01.2012 16:37 -3,0 C 78 % 1032,4 hPa 0,0 l/m 3,2 km/h (1 Bft) O 90 -6,3 C -3,0 C
28.01.2012 16:42 -3,0 C 79 % 1032,6 hPa 0,0 l/m 9,7 km/h (2 Bft) O 90 -6,1 C -6,8 C
28.01.2012 16:47 -3,1 C 79 % 1032,7 hPa 0,0 l/m 4,0 km/h (1 Bft) O 90 -6,2 C -3,1 C
28.01.2012 16:52 -3,1 C 80 % 1032,7 hPa 0,0 l/m 0,0 km/h (0 Bft) O 90 -6,0 C -3,1 C
28.01.2012 16:57 -3,2 C 81 % 1032,6 hPa 0,0 l/m 4,7 km/h (1 Bft) O 90 -6,0 C -5,1 C
28.01.2012 17:02 -3,2 C 81 % 1032,7 hPa 0,0 l/m 3,6 km/h (1 Bft) O 90 -6,0 C -3,2 C
28.01.2012 17:07 -3,3 C 82 % 1032,7 hPa 0,0 l/m 4,7 km/h (1 Bft) O 90 -5,9 C -5,2 C
28.01.2012 17:12 -3,4 C 82 % 1032,6 hPa 0,0 l/m 5,8 km/h (2 Bft) O 90 -6,0 C -5,8 C
28.01.2012 17:17 -3,5 C 83 % 1032,8 hPa 0,0 l/m 2,2 km/h (1 Bft) O 90 -6,0 C -3,5 C
28.01.2012 17:22 -3,5 C 84 % 1032,7 hPa 0,0 l/m 5,0 km/h (1 Bft) O 90 -5,8 C -5,6 C
28.01.2012 17:27 -3,6 C 84 % 1032,8 hPa 0,0 l/m 6,8 km/h (2 Bft) O 90 -5,9 C -6,5 C
28.01.2012 17:32 -3,6 C 84 % 1033,0 hPa 0,0 l/m 6,1 km/h (2 Bft) O 90 -5,9 C -6,2 C
28.01.2012 17:37 -3,6 C 84 % 1033,0 hPa 0,0 l/m 8,6 km/h (2 Bft) O 90 -5,9 C -7,2 C
28.01.2012 17:42 -3,6 C 85 % 1033,0 hPa 0,0 l/m 1,8 km/h (1 Bft) O 90 -5,7 C -3,6 C
28.01.2012 17:47 -3,6 C 85 % 1033,1 hPa 0,0 l/m 7,9 km/h (2 Bft) O 90 -5,7 C -6,9 C
28.01.2012 17:52 -3,6 C 85 % 1033,2 hPa 0,0 l/m 4,7 km/h (1 Bft) O 90 -5,7 C -5,5 C
28.01.2012 17:57 -3,6 C 85 % 1033,2 hPa 0,0 l/m 6,5 km/h (2 Bft) O 90 -5,7 C -6,4 C
28.01.2012 18:02 -3,7 C 86 % 1033,1 hPa 0,0 l/m 4,3 km/h (1 Bft) O 90 -5,7 C -3,7 C
28.01.2012 18:07 -3,7 C 86 % 1033,2 hPa 0,0 l/m 6,8 km/h (2 Bft) O 90 -5,7 C -6,6 C
28.01.2012 18:12 -3,7 C 86 % 1033,2 hPa 0,0 l/m 2,9 km/h (1 Bft) O 90 -5,7 C -3,7 C
28.01.2012 18:17 -3,7 C 86 % 1033,3 hPa 0,0 l/m 3,2 km/h (1 Bft) O 90 -5,7 C -3,7 C
28.01.2012 18:22 -3,8 C 86 % 1033,2 hPa 0,0 l/m 4,3 km/h (1 Bft) O 90 -5,8 C -3,8 C
28.01.2012 18:27 -3,7 C 86 % 1033,2 hPa 0,0 l/m 6,1 km/h (2 Bft) O 90 -5,7 C -6,3 C
28.01.2012 18:32 -3,8 C 86 % 1033,2 hPa 0,0 l/m 10,1 km/h (2 Bft) O 90 -5,8 C -7,9 C
28.01.2012 18:37 -3,9 C 86 % 1033,2 hPa 0,0 l/m 12,6 km/h (3 Bft) O 90 -5,9 C -8,7 C
28.01.2012 18:42 -3,9 C 86 % 1033,3 hPa 0,0 l/m 3,2 km/h (1 Bft) O 90 -5,9 C -3,9 C
28.01.2012 18:47 -3,9 C 86 % 1033,4 hPa 0,0 l/m 2,5 km/h (1 Bft) O 90 -5,9 C -3,9 C
28.01.2012 18:52 -3,9 C 86 % 1033,3 hPa 0,0 l/m 5,0 km/h (1 Bft) O 90 -5,9 C -6,0 C
28.01.2012 18:57 -3,9 C 87 % 1033,4 hPa 0,0 l/m 6,1 km/h (2 Bft) O 90 -5,7 C -6,6 C
28.01.2012 19:02 -3,9 C 87 % 1033,5 hPa 0,0 l/m 6,1 km/h (2 Bft) O 90 -5,7 C -6,6 C
28.01.2012 19:07 -3,9 C 87 % 1033,4 hPa 0,0 l/m 8,3 km/h (2 Bft) O 90 -5,7 C -7,4 C
28.01.2012 19:12 -3,9 C 87 % 1033,6 hPa 0,0 l/m 3,6 km/h (1 Bft) O 90 -5,7 C -3,9 C
28.01.2012 19:17 -3,9 C 87 % 1033,6 hPa 0,0 l/m 2,5 km/h (1 Bft) O 90 -5,7 C -3,9 C
28.01.2012 19:22 -3,9 C 87 % 1033,6 hPa 0,0 l/m 2,2 km/h (1 Bft) O 90 -5,7 C -3,9 C
28.01.2012 19:27 -3,9 C 87 % 1033,6 hPa 0,0 l/m 0,0 km/h (0 Bft) O 90 -5,7 C -3,9 C
28.01.2012 19:32 -3,9 C 87 % 1033,8 hPa 0,0 l/m 0,0 km/h (0 Bft) O 90 -5,7 C -3,9 C
28.01.2012 19:37 -3,9 C 87 % 1033,9 hPa 0,0 l/m 2,5 km/h (1 Bft) O 90 -5,7 C -3,9 C
28.01.2012 19:42 -3,8 C 87 % 1033,7 hPa 0,0 l/m 0,0 km/h (0 Bft) O 90 -5,6 C -3,8 C
28.01.2012 19:47 -3,8 C 87 % 1033,8 hPa 0,0 l/m 2,5 km/h (1 Bft) O 90 -5,6 C -3,8 C
28.01.2012 19:52 -3,8 C 87 % 1033,9 hPa 0,0 l/m 8,3 km/h (2 Bft) O 90 -5,6 C -7,3 C
28.01.2012 19:57 -3,9 C 87 % 1033,8 hPa 0,0 l/m 2,5 km/h (1 Bft) O 90 -5,7 C -3,9 C
28.01.2012 20:02 -3,9 C 87 % 1033,8 hPa 0,0 l/m 5,0 km/h (1 Bft) O 90 -5,7 C -6,0 C
28.01.2012 20:07 -3,9 C 87 % 1033,9 hPa 0,0 l/m 5,0 km/h (1 Bft) O 90 -5,7 C -6,0 C
28.01.2012 20:12 -3,9 C 87 % 1033,9 hPa 0,0 l/m 4,0 km/h (1 Bft) O 90 -5,7 C -3,9 C
28.01.2012 20:17 -4,1 C 87 % 1033,9 hPa 0,0 l/m 5,4 km/h (1 Bft) O 90 -5,9 C -6,4 C
28.01.2012 20:22 -4,1 C 87 % 1033,8 hPa 0,0 l/m 6,1 km/h (2 Bft) O 90 -5,9 C -6,8 C
28.01.2012 20:27 -4,1 C 87 % 1034,0 hPa 0,0 l/m 9,4 km/h (2 Bft) O 90 -5,9 C -8,0 C
28.01.2012 20:32 -4,1 C 87 % 1033,9 hPa 0,0 l/m 6,1 km/h (2 Bft) O 90 -5,9 C -6,8 C
28.01.2012 20:37 -4,2 C 87 % 1034,0 hPa 0,0 l/m 4,7 km/h (1 Bft) O 90 -6,0 C -6,2 C
28.01.2012 20:42 -4,2 C 87 % 1034,0 hPa 0,0 l/m 5,4 km/h (1 Bft) O 90 -6,0 C -6,6 C
28.01.2012 20:47 -4,2 C 87 % 1033,7 hPa 0,0 l/m 4,0 km/h (1 Bft) O 90 -6,0 C -4,2 C
28.01.2012 20:52 -4,2 C 87 % 1033,9 hPa 0,0 l/m 8,6 km/h (2 Bft) O 90 -6,0 C -7,9 C
28.01.2012 20:57 -4,2 C 87 % 1033,7 hPa 0,0 l/m 10,1 km/h (2 Bft) O 90 -6,0 C -8,4 C
28.01.2012 21:02 -4,2 C 87 % 1034,0 hPa 0,0 l/m 4,7 km/h (1 Bft) O 90 -6,0 C -6,2 C
28.01.2012 21:07 -4,2 C 87 % 1033,9 hPa 0,0 l/m 5,4 km/h (1 Bft) O 90 -6,0 C -6,6 C
28.01.2012 21:12 -4,3 C 87 % 1034,0 hPa 0,0 l/m 7,9 km/h (2 Bft) O 90 -6,1 C -7,8 C
28.01.2012 21:17 -4,2 C 87 % 1033,9 hPa 0,0 l/m 4,3 km/h (1 Bft) O 90 -6,0 C -4,2 C
28.01.2012 21:22 -4,2 C 87 % 1033,9 hPa 0,0 l/m 4,0 km/h (1 Bft) O 90 -6,0 C -4,2 C
28.01.2012 21:27 -4,3 C 87 % 1034,1 hPa 0,0 l/m 4,0 km/h (1 Bft) O 90 -6,1 C -4,3 C
28.01.2012 21:32 -4,4 C 87 % 1034,0 hPa 0,0 l/m 6,1 km/h (2 Bft) O 90 -6,2 C -7,1 C
28.01.2012 21:37 -4,3 C 87 % 1034,0 hPa 0,0 l/m 3,6 km/h (1 Bft) O 90 -6,1 C -4,3 C
28.01.2012 21:42 -4,3 C 87 % 1034,1 hPa 0,0 l/m 6,1 km/h (2 Bft) O 90 -6,1 C -7,0 C
28.01.2012 21:47 -4,4 C 87 % 1034,1 hPa 0,0 l/m 4,7 km/h (1 Bft) O 90 -6,2 C -6,4 C
28.01.2012 21:52 -4,4 C 87 % 1033,9 hPa 0,0 l/m 9,4 km/h (2 Bft) O 90 -6,2 C -8,4 C
28.01.2012 21:57 -4,4 C 87 % 1033,8 hPa 0,0 l/m 3,2 km/h (1 Bft) O 90 -6,2 C -4,4 C
28.01.2012 22:02 -4,4 C 87 % 1034,0 hPa 0,0 l/m 2,5 km/h (1 Bft) O 90 -6,2 C -4,4 C
28.01.2012 22:07 -4,4 C 87 % 1033,9 hPa 0,0 l/m 4,0 km/h (1 Bft) O 90 -6,2 C -4,4 C
28.01.2012 22:12 -4,4 C 87 % 1033,9 hPa 0,0 l/m 5,0 km/h (1 Bft) O 90 -6,2 C -6,6 C
28.01.2012 22:17 -4,4 C 87 % 1033,9 hPa 0,0 l/m 2,5 km/h (1 Bft) O 90 -6,2 C -4,4 C
28.01.2012 22:22 -4,5 C 87 % 1033,8 hPa 0,0 l/m 3,6 km/h (1 Bft) O 90 -6,3 C -4,5 C
28.01.2012 22:27 -4,5 C 87 % 1033,9 hPa 0,0 l/m 9,4 km/h (2 Bft) O 90 -6,3 C -8,5 C
28.01.2012 22:32 -4,5 C 87 % 1033,9 hPa 0,0 l/m 2,9 km/h (1 Bft) O 90 -6,3 C -4,5 C
28.01.2012 22:37 -4,5 C 87 % 1034,0 hPa 0,0 l/m 0,0 km/h (0 Bft) O 90 -6,3 C -4,5 C
28.01.2012 22:42 -4,5 C 87 % 1033,9 hPa 0,0 l/m 5,8 km/h (2 Bft) O 90 -6,3 C -7,1 C
28.01.2012 22:47 -4,5 C 87 % 1033,8 hPa 0,0 l/m 7,6 km/h (2 Bft) O 90 -6,3 C -7,9 C
28.01.2012 22:52 -4,5 C 87 % 1033,8 hPa 0,0 l/m 5,4 km/h (1 Bft) O 90 -6,3 C -6,9 C
28.01.2012 22:57 -4,6 C 87 % 1033,9 hPa 0,0 l/m 3,6 km/h (1 Bft) O 90 -6,4 C -4,6 C
28.01.2012 23:02 -4,6 C 87 % 1033,9 hPa 0,0 l/m 4,3 km/h (1 Bft) O 90 -6,4 C -4,6 C
28.01.2012 23:07 -4,6 C 87 % 1034,0 hPa 0,0 l/m 5,0 km/h (1 Bft) O 90 -6,4 C -6,8 C
28.01.2012 23:12 -4,7 C 87 % 1034,0 hPa 0,0 l/m 5,8 km/h (2 Bft) O 90 -6,5 C -7,3 C
28.01.2012 23:17 -4,7 C 87 % 1034,0 hPa 0,0 l/m 4,7 km/h (1 Bft) O 90 -6,5 C -6,8 C
28.01.2012 23:22 -4,7 C 87 % 1034,0 hPa 0,0 l/m 2,5 km/h (1 Bft) O 90 -6,5 C -4,7 C
28.01.2012 23:27 -4,7 C 87 % 1034,0 hPa 0,0 l/m 6,5 km/h (2 Bft) O 90 -6,5 C -7,7 C
28.01.2012 23:32 -4,8 C 87 % 1034,0 hPa 0,0 l/m 5,4 km/h (1 Bft) O 90 -6,6 C -7,2 C
28.01.2012 23:37 -4,9 C 87 % 1033,8 hPa 0,0 l/m 4,0 km/h (1 Bft) O 90 -6,7 C -4,9 C
28.01.2012 23:42 -4,9 C 87 % 1034,0 hPa 0,0 l/m 6,8 km/h (2 Bft) O 90 -6,7 C -8,0 C
28.01.2012 23:47 -5,0 C 87 % 1033,8 hPa 0,0 l/m 9,4 km/h (2 Bft) O 90 -6,8 C -9,1 C
28.01.2012 23:52 -5,0 C 87 % 1033,8 hPa 0,0 l/m 6,1 km/h (2 Bft) O 90 -6,8 C -7,8 C
28.01.2012 23:57 -5,0 C 87 % 1033,7 hPa 0,0 l/m 3,6 km/h (1 Bft) O 90 -6,8 C -5,0 C
_ Min-Zeit 23:47 12:52 00:07 - 11:17 - - 23:47 23:47
Minimum _ -5,0 C 77 % 1029,8 hPa - 0,0 km/h (0 Bft) - - -6,8 C -9,1 C
_ Max-Zeit 00:02 18:57 21:27 00:02 00:42 - - 00:02 00:07
Maximum _ -2,2 C 87 % 1034,1 hPa 0,0 l/m 12,6 km/h
O (3 Bft)
- - -4,4 C -2,2 C
Durchschnitt _ -3,3 C 82 % 1032,2 hPa #0,0 l/m 5,5 km/h (1 Bft) O - -5,8 C -5,1 C
(c) by David Heller